createdAt,value
2018-03-08T00:00:55.417Z,61.40
2018-03-08T00:03:23.319Z,66.83
2018-03-08T00:05:49.187Z,63.13
2018-03-08T00:08:15.057Z,67.50
2018-03-08T00:10:40.947Z,63.90
2018-03-08T00:13:06.799Z,65.07
2018-03-08T00:15:32.640Z,52.90
2018-03-08T00:17:58.609Z,62.53
2018-03-08T00:20:24.495Z,69.10
2018-03-08T00:22:50.347Z,63.87
2018-03-08T00:25:16.232Z,68.67
2018-03-08T00:27:42.088Z,67.73
2018-03-08T00:30:07.946Z,66.50
2018-03-08T00:32:33.845Z,67.87
2018-03-08T00:34:59.792Z,70.20
2018-03-08T00:37:25.644Z,57.23
2018-03-08T00:39:51.550Z,64.00
2018-03-08T00:42:17.400Z,70.37
2018-03-08T00:44:43.235Z,65.10
2018-03-08T00:47:09.405Z,63.90
2018-03-08T00:49:35.280Z,63.70
2018-03-08T00:52:01.138Z,55.23
2018-03-08T00:54:27.108Z,64.30
2018-03-08T00:56:52.961Z,58.03
2018-03-08T00:59:18.804Z,68.83
2018-03-08T01:01:44.701Z,68.40
2018-03-08T01:04:10.565Z,53.70
2018-03-08T01:06:36.416Z,58.60
2018-03-08T01:09:02.328Z,56.60
2018-03-08T01:11:28.196Z,52.50
2018-03-08T01:13:54.052Z,59.27
2018-03-08T01:16:19.944Z,54.50
2018-03-08T01:18:45.788Z,62.53
2018-03-08T01:21:11.641Z,55.70
2018-03-08T01:23:37.528Z,62.87
2018-03-08T01:26:03.469Z,58.23
2018-03-08T01:28:29.326Z,67.03
2018-03-08T01:30:55.292Z,61.73
2018-03-08T01:33:21.140Z,52.00
2018-03-08T01:35:47.066Z,61.33
2018-03-08T01:38:12.960Z,60.50
2018-03-08T01:40:38.819Z,58.23
2018-03-08T01:43:04.671Z,60.43
2018-03-08T01:45:30.665Z,59.03
2018-03-08T01:47:56.528Z,61.57
2018-03-08T01:50:22.390Z,56.20
2018-03-08T01:52:48.289Z,49.50
2018-03-08T01:55:14.132Z,57.23
2018-03-08T01:57:40.004Z,63.87
2018-03-08T02:00:05.913Z,66.33
2018-03-08T02:02:31.763Z,75.63
2018-03-08T02:04:57.665Z,65.33
2018-03-08T02:07:23.564Z,59.93
2018-03-08T02:09:54.973Z,70.03
2018-03-08T02:12:20.875Z,77.00
2018-03-08T02:14:46.770Z,68.83
2018-03-08T02:17:12.625Z,73.00
2018-03-08T02:19:38.845Z,68.60
2018-03-08T02:22:04.920Z,83.73
2018-03-08T02:24:30.772Z,82.43
2018-03-08T02:26:56.616Z,81.93
2018-03-08T02:29:22.497Z,86.87
2018-03-08T02:31:48.345Z,88.90
2018-03-08T02:34:14.200Z,91.37
2018-03-08T02:36:40.108Z,85.73
2018-03-08T02:39:06.002Z,82.20
2018-03-08T02:41:31.851Z,84.00
2018-03-08T02:43:57.729Z,82.93
2018-03-08T02:46:23.580Z,91.40
2018-03-08T02:48:49.420Z,90.07
2018-03-08T02:51:15.392Z,91.47
2018-03-08T02:53:41.241Z,76.73
2018-03-08T02:56:07.085Z,72.27
2018-03-08T02:58:32.969Z,66.23
2018-03-08T03:00:58.827Z,69.93
2018-03-08T03:03:24.680Z,78.57
2018-03-08T03:05:50.571Z,75.97
2018-03-08T03:08:16.417Z,67.53
2018-03-08T03:10:42.273Z,70.00
2018-03-08T03:13:08.156Z,82.67
2018-03-08T03:15:34.020Z,93.53
2018-03-08T03:17:59.864Z,92.87
2018-03-08T03:20:25.748Z,92.37
2018-03-08T03:22:51.604Z,88.43
2018-03-08T03:25:17.445Z,98.17
2018-03-08T03:27:43.339Z,97.17
2018-03-08T03:30:09.194Z,86.50
2018-03-08T03:32:35.043Z,101.00
2018-03-08T03:35:00.932Z,103.47
2018-03-08T03:37:26.776Z,105.00
2018-03-08T03:39:52.648Z,90.60
2018-03-08T03:42:18.529Z,81.40
2018-03-08T03:44:44.380Z,82.17
2018-03-08T03:47:10.240Z,93.73
2018-03-08T03:49:36.134Z,69.60
2018-03-08T03:52:01.984Z,79.43
2018-03-08T03:54:27.824Z,79.50
2018-03-08T03:56:53.716Z,81.10
2018-03-08T03:59:19.564Z,79.60
2018-03-08T04:01:45.408Z,81.90
2018-03-08T04:04:11.335Z,86.43
2018-03-08T04:06:37.272Z,87.97
2018-03-08T04:09:03.153Z,88.40
2018-03-08T04:11:29.201Z,75.67
2018-03-08T04:13:55.056Z,77.90
2018-03-08T04:16:20.902Z,88.30
2018-03-08T04:18:46.823Z,100.40
2018-03-08T04:21:12.672Z,100.07
2018-03-08T04:23:38.524Z,97.60
2018-03-08T04:26:04.400Z,97.03
2018-03-08T04:28:30.258Z,84.87
2018-03-08T04:30:56.104Z,78.63
2018-03-08T04:33:22.005Z,80.20
2018-03-08T04:35:47.853Z,68.63
2018-03-08T04:38:13.692Z,74.77
2018-03-08T04:40:39.664Z,81.07
2018-03-08T04:43:05.496Z,82.03
2018-03-08T04:45:31.413Z,72.93
2018-03-08T04:47:57.313Z,73.87
2018-03-08T04:50:23.165Z,75.63
2018-03-08T04:52:49.129Z,80.23
2018-03-08T04:55:15.025Z,74.63
2018-03-08T04:57:40.876Z,73.40
2018-03-08T05:00:06.733Z,72.63
2018-03-08T05:02:32.660Z,70.77
2018-03-08T05:04:58.603Z,64.73
2018-03-08T05:07:24.549Z,67.40
2018-03-08T05:09:50.435Z,66.40
2018-03-08T05:12:16.307Z,68.13
2018-03-08T05:14:42.140Z,61.63
2018-03-08T05:17:08.570Z,61.13
2018-03-08T05:19:34.496Z,59.77
2018-03-08T05:22:00.332Z,57.80
2018-03-08T05:24:26.220Z,61.17
2018-03-08T05:26:52.069Z,61.70
2018-03-08T05:29:18.003Z,64.63
2018-03-08T05:31:43.944Z,60.30
2018-03-08T05:34:09.788Z,57.03
2018-03-08T05:36:35.637Z,59.67
2018-03-08T05:39:01.520Z,54.07
2018-03-08T05:41:27.484Z,57.53
2018-03-08T05:43:53.407Z,49.07
2018-03-08T05:46:19.331Z,61.30
2018-03-08T05:48:45.172Z,52.13
2018-03-08T05:51:11.016Z,54.37
2018-03-08T05:53:37.000Z,60.23
2018-03-08T05:56:02.909Z,62.47
2018-03-08T05:58:28.764Z,59.60
2018-03-08T06:00:54.677Z,65.50
2018-03-08T06:03:20.520Z,68.07
2018-03-08T06:05:46.456Z,70.67
2018-03-08T06:08:12.393Z,69.13
2018-03-08T06:10:38.245Z,63.90
2018-03-08T06:13:04.088Z,61.77
2018-03-08T06:15:29.985Z,59.20
2018-03-08T06:17:55.920Z,59.53
2018-03-08T06:20:21.809Z,56.03
2018-03-08T06:22:47.716Z,54.90
2018-03-08T06:25:13.574Z,53.47
2018-03-08T06:27:39.437Z,51.90
2018-03-08T06:30:05.455Z,49.90
2018-03-08T06:32:31.376Z,47.63
2018-03-08T06:34:57.224Z,46.30
2018-03-08T06:37:23.116Z,43.23
2018-03-08T06:39:48.972Z,43.90
2018-03-08T06:42:14.908Z,39.63
2018-03-08T06:44:40.864Z,38.83
2018-03-08T06:47:06.712Z,36.90
2018-03-08T06:49:32.558Z,35.47
2018-03-08T06:51:58.497Z,35.77
2018-03-08T06:54:24.416Z,35.43
2018-03-08T06:56:50.316Z,34.67
2018-03-08T06:59:16.216Z,34.40
2018-03-08T07:01:42.113Z,31.20
2018-03-08T07:04:07.969Z,32.80
2018-03-08T07:06:33.978Z,31.13
2018-03-08T07:08:59.897Z,31.37
2018-03-08T07:11:25.744Z,31.30
2018-03-08T07:13:51.664Z,29.47
2018-03-08T07:16:17.510Z,29.87
2018-03-08T07:18:43.461Z,27.70
2018-03-08T07:21:09.471Z,29.33
2018-03-08T07:23:35.344Z,29.53
2018-03-08T07:26:01.462Z,26.93
2018-03-08T07:28:27.431Z,29.57
2018-03-08T07:30:53.352Z,28.63
2018-03-08T07:33:19.269Z,27.93
2018-03-08T07:35:45.168Z,26.40
2018-03-08T07:38:11.020Z,27.63
2018-03-08T07:40:36.884Z,25.87
2018-03-08T07:43:02.934Z,25.73
2018-03-08T07:45:28.835Z,25.33
2018-03-08T07:47:54.684Z,25.27
2018-03-08T07:50:20.717Z,24.87
2018-03-08T07:52:46.572Z,25.77
2018-03-08T07:55:12.505Z,23.53
2018-03-08T07:57:38.532Z,24.27
2018-03-08T08:00:04.404Z,23.40
2018-03-08T08:02:30.248Z,25.03
2018-03-08T08:05:08.362Z,23.90
2018-03-08T08:07:46.605Z,23.67
2018-03-08T08:10:12.492Z,24.17
2018-03-08T08:12:38.661Z,23.53
2018-03-08T08:15:04.553Z,24.17
2018-03-08T08:17:30.556Z,22.80
2018-03-08T08:19:56.440Z,21.73
2018-03-08T08:22:22.288Z,20.53
2018-03-08T08:24:48.201Z,21.53
2018-03-08T08:27:14.132Z,20.83
2018-03-08T08:29:40.079Z,20.17
2018-03-08T08:32:06.049Z,20.60
2018-03-08T08:34:31.912Z,20.80
2018-03-08T08:36:57.761Z,20.60
2018-03-08T08:39:23.737Z,20.47
2018-03-08T08:41:49.701Z,19.00
2018-03-08T08:44:15.561Z,19.13
2018-03-08T08:46:42.042Z,19.17
2018-03-08T08:49:07.948Z,18.67
2018-03-08T08:51:33.804Z,18.67
2018-03-08T08:53:59.911Z,19.80
2018-03-08T08:56:25.802Z,19.10
2018-03-08T08:58:52.063Z,18.23
2018-03-08T09:01:18.048Z,18.87
2018-03-08T09:03:43.905Z,18.13
2018-03-08T09:06:09.757Z,18.93
2018-03-08T09:08:35.749Z,18.53
2018-03-08T09:11:02.072Z,16.90
2018-03-08T09:13:27.935Z,18.27
2018-03-08T09:15:53.877Z,16.30
2018-03-08T09:18:19.727Z,16.67
2018-03-08T09:20:45.676Z,16.70
2018-03-08T09:23:11.837Z,18.40
2018-03-08T09:25:37.756Z,17.67
2018-03-08T09:28:03.706Z,16.80
2018-03-08T09:30:29.677Z,16.00
2018-03-08T09:32:55.975Z,14.37
2018-03-08T09:35:21.900Z,16.80
2018-03-08T09:37:53.977Z,15.77
2018-03-08T09:40:19.833Z,15.87
2018-03-08T09:42:46.046Z,17.53
2018-03-08T09:45:11.945Z,17.77
2018-03-08T09:47:37.801Z,18.27
2018-03-08T09:50:03.744Z,17.87
2018-03-08T09:52:29.619Z,16.37
2018-03-08T09:54:55.893Z,14.97
2018-03-08T09:57:21.852Z,16.70
2018-03-08T09:59:47.820Z,16.97
2018-03-08T10:02:13.664Z,16.93
2018-03-08T10:04:39.541Z,18.20
2018-03-08T10:07:05.492Z,19.10
2018-03-08T10:09:31.404Z,20.77
2018-03-08T10:11:57.248Z,20.13
2018-03-08T10:14:23.216Z,21.73
2018-03-08T10:16:49.104Z,21.37
2018-03-08T10:19:15.049Z,20.90
2018-03-08T10:21:45.163Z,22.00
2018-03-08T10:24:06.822Z,21.93
2018-03-08T10:26:32.793Z,21.60
2018-03-08T10:28:58.687Z,23.37
2018-03-08T10:31:24.540Z,22.07
2018-03-08T10:33:50.397Z,21.20
2018-03-08T10:36:16.296Z,23.13
2018-03-08T10:38:42.150Z,22.30
2018-03-08T10:41:08.009Z,21.57
2018-03-08T10:43:33.900Z,20.97
2018-03-08T10:45:59.740Z,21.47
2018-03-08T10:48:25.584Z,20.90
2018-03-08T10:50:51.484Z,20.43
2018-03-08T10:53:17.332Z,20.10
2018-03-08T10:55:43.212Z,20.20
2018-03-08T10:58:09.104Z,21.23
2018-03-08T11:03:47.036Z,19.97
2018-03-08T11:06:18.893Z,21.10
2018-03-08T11:08:44.805Z,21.57
2018-03-08T11:11:10.783Z,22.33
2018-03-08T11:13:36.620Z,20.40
2018-03-08T11:16:03.050Z,20.10
2018-03-08T11:18:28.993Z,21.40
2018-03-08T11:20:54.884Z,22.23
2018-03-08T11:23:20.747Z,21.93
2018-03-08T11:25:47.544Z,22.87
2018-03-08T11:28:13.397Z,21.07
2018-03-08T11:30:39.248Z,18.90
2018-03-08T11:33:05.200Z,19.57
2018-03-08T11:35:31.056Z,19.10
2018-03-08T11:37:56.917Z,19.73
2018-03-08T11:40:22.812Z,19.43
2018-03-08T11:42:48.662Z,20.10
2018-03-08T11:45:14.577Z,19.20
2018-03-08T11:47:40.560Z,19.27
2018-03-08T11:50:06.525Z,19.50
2018-03-08T11:52:32.457Z,20.30
2018-03-08T11:54:58.405Z,19.40
2018-03-08T11:57:24.259Z,20.60
2018-03-08T11:59:50.108Z,19.57
2018-03-08T12:02:16.072Z,19.50
2018-03-08T12:04:41.932Z,19.53
2018-03-08T12:07:07.871Z,20.30
2018-03-08T12:09:33.883Z,19.07
2018-03-08T12:11:59.887Z,20.83
2018-03-08T12:14:25.834Z,20.97
2018-03-08T12:16:51.736Z,21.00
2018-03-08T12:19:17.749Z,19.80
2018-03-08T12:21:43.602Z,19.10
2018-03-08T12:24:09.488Z,19.73
2018-03-08T12:26:35.341Z,19.77
2018-03-08T12:29:01.205Z,20.00
2018-03-08T12:31:27.100Z,18.47
2018-03-08T12:33:52.947Z,19.63
2018-03-08T12:36:18.921Z,21.10
2018-03-08T12:38:44.813Z,18.77
2018-03-08T12:41:10.675Z,19.47
2018-03-08T12:43:36.638Z,18.80
2018-03-08T12:46:02.575Z,18.93
2018-03-08T12:48:28.449Z,20.23
2018-03-08T12:50:54.397Z,18.50
2018-03-08T12:53:20.303Z,18.87
2018-03-08T12:55:46.185Z,19.07
2018-03-08T12:58:12.050Z,18.03
2018-03-08T13:00:37.973Z,18.20
2018-03-08T13:03:03.932Z,17.87
2018-03-08T13:05:29.905Z,17.30
2018-03-08T13:07:55.820Z,18.97
2018-03-08T13:10:21.709Z,16.37
2018-03-08T13:12:47.557Z,17.80
2018-03-08T13:15:13.552Z,16.53
2018-03-08T13:17:39.401Z,16.23
2018-03-08T13:20:05.248Z,16.17
2018-03-08T13:22:31.140Z,15.63
2018-03-08T13:24:56.984Z,16.53
2018-03-08T13:27:22.926Z,16.23
2018-03-08T13:29:48.856Z,15.37
2018-03-08T13:32:14.708Z,14.47
2018-03-08T13:34:40.567Z,13.73
2018-03-08T13:37:06.472Z,13.40
2018-03-08T13:39:32.446Z,13.37
2018-03-08T13:41:58.298Z,13.03
2018-03-08T13:44:24.212Z,13.30
2018-03-08T13:46:50.124Z,13.13
2018-03-08T13:49:28.221Z,11.77
2018-03-08T13:51:54.181Z,12.07
2018-03-08T13:54:20.024Z,11.53
2018-03-08T13:56:45.911Z,12.07
2018-03-08T13:59:11.770Z,11.37
2018-03-08T14:01:37.622Z,11.40
2018-03-08T14:04:03.590Z,10.13
2018-03-08T14:06:29.443Z,10.30
2018-03-08T14:08:55.317Z,9.13
2018-03-08T14:11:21.282Z,8.13
2018-03-08T14:13:47.136Z,9.00
2018-03-08T14:16:13.006Z,7.40
2018-03-08T14:18:38.896Z,7.30
2018-03-08T14:21:04.755Z,6.67
2018-03-08T14:23:30.628Z,6.33
2018-03-08T14:25:56.525Z,5.57
2018-03-08T14:28:22.388Z,5.53
2018-03-08T14:30:48.338Z,5.63
2018-03-08T14:33:14.267Z,5.40
2018-03-08T14:35:40.120Z,5.37
2018-03-08T14:38:06.018Z,5.60
2018-03-08T14:40:31.908Z,5.27
2018-03-08T14:42:57.764Z,5.10
2018-03-08T14:45:23.628Z,5.20
2018-03-08T14:47:49.623Z,4.50
2018-03-08T14:50:15.417Z,4.80
2018-03-08T14:52:41.270Z,4.43
2018-03-08T14:55:07.160Z,4.90
2018-03-08T14:57:33.153Z,4.40
2018-03-08T14:59:59.000Z,4.50
2018-03-08T15:02:24.890Z,4.67
2018-03-08T15:04:50.793Z,4.13
2018-03-08T15:07:16.673Z,4.20
2018-03-08T15:09:42.581Z,3.70
2018-03-08T15:12:08.527Z,3.60
2018-03-08T15:14:34.372Z,3.33
2018-03-08T15:17:00.261Z,3.50
2018-03-08T15:19:26.132Z,3.40
2018-03-08T15:21:51.982Z,3.70
2018-03-08T15:24:17.931Z,3.70
2018-03-08T15:26:43.769Z,3.37
2018-03-08T15:29:09.678Z,3.47
2018-03-08T15:31:35.625Z,3.60
2018-03-08T15:34:01.488Z,3.50
2018-03-08T15:36:27.332Z,3.57
2018-03-08T15:38:53.320Z,3.77
2018-03-08T15:41:19.188Z,3.33
2018-03-08T15:43:45.057Z,3.60
2018-03-08T15:46:11.026Z,3.10
2018-03-08T15:48:36.929Z,3.87
2018-03-08T15:51:02.800Z,3.10
2018-03-08T15:53:28.796Z,3.33
2018-03-08T15:55:54.723Z,3.87
2018-03-08T15:58:20.600Z,3.60
2018-03-08T16:00:46.531Z,3.40
2018-03-08T16:03:12.380Z,4.10
2018-03-08T16:05:38.276Z,3.30
2018-03-08T16:11:23.036Z,3.93
2018-03-08T16:13:48.924Z,4.20
2018-03-08T16:16:14.820Z,4.27
2018-03-08T16:18:40.673Z,4.13
2018-03-08T16:21:06.646Z,4.10
2018-03-08T16:23:32.493Z,4.23
2018-03-08T16:25:58.440Z,4.10
2018-03-08T16:28:24.324Z,4.90
2018-03-08T16:30:50.175Z,4.13
2018-03-08T16:33:16.030Z,4.50
2018-03-08T16:35:41.931Z,4.53
2018-03-08T16:38:07.800Z,5.27
2018-03-08T16:40:33.652Z,6.80
2018-03-08T16:42:59.544Z,5.40
2018-03-08T16:45:25.505Z,4.83
2018-03-08T16:47:51.349Z,4.90
2018-03-08T16:50:17.244Z,5.43
2018-03-08T16:52:43.192Z,5.47
2018-03-08T16:55:09.061Z,5.60
2018-03-08T16:57:34.978Z,5.40
2018-03-08T17:00:00.865Z,6.17
2018-03-08T17:02:26.718Z,6.10
2018-03-08T17:04:52.609Z,6.63
2018-03-08T17:07:18.535Z,6.57
2018-03-08T17:09:44.424Z,7.13
2018-03-08T17:12:10.322Z,6.60
2018-03-08T17:14:36.241Z,6.30
2018-03-08T17:17:02.074Z,6.17
2018-03-08T17:19:28.007Z,5.90
2018-03-08T17:21:53.857Z,6.13
2018-03-08T17:24:19.729Z,6.00
2018-03-08T17:26:45.674Z,6.03
2018-03-08T17:29:11.536Z,6.37
2018-03-08T17:31:37.410Z,5.87
2018-03-08T17:34:03.300Z,6.33
2018-03-08T17:36:29.180Z,5.73
2018-03-08T17:38:55.237Z,6.37
2018-03-08T17:41:21.180Z,5.90
2018-03-08T17:43:47.044Z,5.93
2018-03-08T17:46:12.888Z,6.67
2018-03-08T17:48:38.802Z,6.23
2018-03-08T17:51:04.664Z,6.20
2018-03-08T17:53:30.613Z,5.93
2018-03-08T17:55:56.622Z,7.40
2018-03-08T17:58:25.414Z,6.83
2018-03-08T18:00:52.961Z,6.40
2018-03-08T18:03:19.409Z,6.17
2018-03-08T18:05:45.266Z,7.53
2018-03-08T18:08:11.159Z,5.47
2018-03-08T18:10:37.142Z,6.80
2018-03-08T18:13:03.308Z,6.97
2018-03-08T18:15:29.176Z,6.87
2018-03-08T18:17:55.072Z,6.30
2018-03-08T18:20:21.004Z,6.93
2018-03-08T18:22:46.861Z,5.97
2018-03-08T18:25:12.790Z,5.67
2018-03-08T18:27:38.651Z,6.20
2018-03-08T18:30:04.525Z,6.07
2018-03-08T18:32:30.528Z,6.03
2018-03-08T18:34:56.704Z,6.50
2018-03-08T18:37:22.641Z,6.57
2018-03-08T18:39:48.554Z,6.03
2018-03-08T18:42:14.401Z,6.63
2018-03-08T18:44:40.375Z,6.83
2018-03-08T18:47:06.369Z,7.27
2018-03-08T18:49:32.320Z,6.93
2018-03-08T18:51:58.242Z,5.53
2018-03-08T18:54:24.143Z,6.83
2018-03-08T18:56:50.129Z,6.40
2018-03-08T18:59:15.985Z,7.20
2018-03-08T19:01:42.170Z,6.57
2018-03-08T19:04:08.362Z,6.73
2018-03-08T19:06:35.464Z,7.27
2018-03-08T19:09:01.503Z,6.87
2018-03-08T19:11:27.384Z,7.03
2018-03-08T19:13:53.306Z,7.07
2018-03-08T19:16:19.205Z,6.27
2018-03-08T19:18:52.109Z,5.83
2018-03-08T19:21:18.138Z,5.50
2018-03-08T19:23:44.053Z,5.27
2018-03-08T19:26:09.917Z,5.07
2018-03-08T19:28:35.781Z,5.13
2018-03-08T19:31:01.698Z,5.43
2018-03-08T19:33:27.610Z,5.40
2018-03-08T19:35:53.577Z,4.50
2018-03-08T19:38:19.465Z,4.97
2018-03-08T19:40:45.317Z,4.70
2018-03-08T19:43:11.204Z,5.07
2018-03-08T19:45:37.146Z,4.63
2018-03-08T19:48:03.022Z,4.63
2018-03-08T19:50:28.876Z,4.90
2018-03-08T19:52:54.780Z,4.60
2018-03-08T19:55:20.655Z,4.50
2018-03-08T19:57:46.522Z,4.53
2018-03-08T20:00:12.503Z,4.40
2018-03-08T20:02:38.397Z,4.63
2018-03-08T20:05:04.262Z,4.73
2018-03-08T20:07:30.152Z,4.40
2018-03-08T20:09:56.066Z,4.63
2018-03-08T20:12:21.929Z,4.33
2018-03-08T20:14:47.896Z,4.50
2018-03-08T20:17:13.750Z,4.43
2018-03-08T20:19:39.592Z,4.77
2018-03-08T20:22:07.284Z,4.67
2018-03-08T20:24:33.123Z,4.37
2018-03-08T20:26:58.997Z,4.20
2018-03-08T20:29:25.254Z,4.70
2018-03-08T20:31:51.111Z,4.47
2018-03-08T20:34:16.969Z,4.10
2018-03-08T20:36:42.922Z,4.27
2018-03-08T20:39:08.824Z,4.53
2018-03-08T20:41:34.677Z,4.10
2018-03-08T20:44:00.586Z,4.57
2018-03-08T20:46:26.436Z,4.30
2018-03-08T20:48:52.346Z,4.27
2018-03-08T20:51:18.253Z,4.53
2018-03-08T20:53:44.121Z,4.10
2018-03-08T20:56:09.973Z,4.50
2018-03-08T20:58:35.875Z,4.30
2018-03-08T21:01:01.826Z,4.50
2018-03-08T21:03:27.684Z,4.47
2018-03-08T21:05:53.597Z,4.77
2018-03-08T21:08:19.461Z,4.23
2018-03-08T21:10:45.732Z,4.17
2018-03-08T21:13:11.667Z,4.33
2018-03-08T21:15:37.516Z,4.10
2018-03-08T21:18:03.373Z,4.20
2018-03-08T21:20:29.293Z,4.20
2018-03-08T21:22:55.236Z,3.93
2018-03-08T21:25:21.083Z,4.83
2018-03-08T21:27:47.020Z,4.47
2018-03-08T21:30:12.876Z,4.60
2018-03-08T21:32:38.721Z,4.67
2018-03-08T21:35:04.705Z,4.57
2018-03-08T21:37:30.569Z,5.00
2018-03-08T21:39:56.420Z,4.90
2018-03-08T21:42:22.342Z,5.20
2018-03-08T21:44:48.196Z,5.10
2018-03-08T21:47:14.160Z,5.03
2018-03-08T21:49:40.080Z,5.63
2018-03-08T21:52:05.928Z,5.30
2018-03-08T21:54:31.768Z,5.70
2018-03-08T21:56:57.676Z,5.47
2018-03-08T21:59:23.625Z,6.17
2018-03-08T22:01:49.492Z,5.33
2018-03-08T22:04:15.393Z,5.83
2018-03-08T22:06:41.244Z,5.53
2018-03-08T22:09:07.094Z,5.57
2018-03-08T22:11:33.077Z,5.90
2018-03-08T22:13:58.924Z,7.33
2018-03-08T22:16:24.784Z,6.27
2018-03-08T22:18:50.681Z,6.60
2018-03-08T22:21:16.548Z,7.03
2018-03-08T22:23:42.499Z,6.97
2018-03-08T22:26:08.403Z,7.17
2018-03-08T22:28:34.265Z,7.40
2018-03-08T22:31:00.117Z,6.67
2018-03-08T22:33:26.017Z,8.00
2018-03-08T22:35:51.980Z,8.40
2018-03-08T22:38:17.836Z,8.10
2018-03-08T22:40:43.733Z,7.37
2018-03-08T22:43:09.692Z,7.57
2018-03-08T22:45:35.524Z,7.60
2018-03-08T22:48:01.500Z,7.20
2018-03-08T22:50:27.348Z,7.33
2018-03-08T22:52:53.196Z,7.53
2018-03-08T22:55:19.093Z,8.20
2018-03-08T22:57:44.945Z,8.27
2018-03-08T23:00:12.508Z,7.63
2018-03-08T23:02:38.408Z,8.10
2018-03-08T23:05:04.260Z,8.60
2018-03-08T23:07:30.111Z,8.13
2018-03-08T23:09:56.089Z,8.03
2018-03-08T23:12:22.016Z,8.50
2018-03-08T23:14:47.860Z,8.80
2018-03-08T23:17:13.759Z,7.80
2018-03-08T23:19:39.664Z,8.70
2018-03-08T23:22:05.524Z,8.33
2018-03-08T23:24:31.532Z,8.43
2018-03-08T23:26:57.383Z,7.30
2018-03-08T23:29:23.301Z,5.17
2018-03-08T23:31:49.188Z,5.03
2018-03-08T23:34:15.069Z,4.23
2018-03-08T23:36:40.965Z,3.77
2018-03-08T23:39:06.973Z,4.17
2018-03-08T23:41:32.849Z,3.90
2018-03-08T23:43:58.695Z,3.67
2018-03-08T23:46:24.665Z,3.93
2018-03-08T23:48:50.893Z,3.83
2018-03-08T23:51:17.360Z,4.13
2018-03-08T23:53:43.412Z,4.10
2018-03-08T23:56:09.572Z,3.73
2018-03-08T23:58:35.620Z,4.43
